Time;durP1;ratioP1;P1;durP2;ratioP2;P2;SDS_P1;SDS_P2;PMS_P1;PMS_P2;Temp;Humidity;BMP_temperature;BMP_pressure;BME280_temperature;BME280_humidity;BME280_pressure;Samples;Min_cycle;Max_cycle;Signal;HPM_P1;HPM_P2
2023/11/15 00:00:50;;;;;;;15.32;8.63;;;;;;;9.28;69.06;98819.19;6143912;23;20058;-94
2023/11/15 00:03:16;;;;;;;18.70;8.93;;;;;;;9.28;69.24;98819.19;6143035;23;20088;-93
2023/11/15 00:05:42;;;;;;;16.48;9.15;;;;;;;9.29;68.87;98817.28;6167055;23;20385;-94
2023/11/15 00:08:08;;;;;;;22.60;8.50;;;;;;;9.21;69.15;98810.59;6142373;23;20009;-93
2023/11/15 00:10:34;;;;;;;17.23;10.10;;;;;;;9.19;68.66;98807.38;6142423;23;20001;-94
2023/11/15 00:12:59;;;;;;;14.90;8.65;;;;;;;9.17;68.90;98808.72;6141673;23;20099;-94
2023/11/15 00:15:25;;;;;;;17.73;9.10;;;;;;;9.24;69.00;98809.25;6142729;23;20490;-93
2023/11/15 00:17:50;;;;;;;22.08;11.02;;;;;;;9.23;69.01;98799.56;6166366;23;20424;-93
2023/11/15 00:20:16;;;;;;;16.80;10.27;;;;;;;9.08;69.21;98787.78;6142572;23;19989;-92
2023/11/15 00:22:42;;;;;;;18.27;9.75;;;;;;;9.22;68.58;98801.47;6142258;23;20035;-94
2023/11/15 00:25:08;;;;;;;18.20;10.88;;;;;;;9.11;68.61;98778.41;6166635;23;20008;-93
2023/11/15 00:27:34;;;;;;;17.23;10.52;;;;;;;9.30;68.97;98808.16;6166934;23;20020;-94
2023/11/15 00:30:00;;;;;;;19.05;9.80;;;;;;;9.08;68.83;98774.38;6167581;23;20377;-93
2023/11/15 00:32:26;;;;;;;22.67;9.65;;;;;;;9.04;68.87;98777.88;6167364;23;20001;-93
2023/11/15 00:34:51;;;;;;;16.20;9.63;;;;;;;9.07;69.24;98788.09;6141978;23;20001;-94
2023/11/15 00:37:17;;;;;;;16.50;10.27;;;;;;;8.99;69.41;98783.28;6142210;23;20000;-93
2023/11/15 00:39:43;;;;;;;15.43;9.93;;;;;;;9.17;69.25;98806.03;6142553;23;20039;-94
2023/11/15 00:42:10;;;;;;;21.02;10.95;;;;;;;8.94;69.51;98775.22;6142096;23;20004;-93
2023/11/15 00:44:35;;;;;;;17.88;10.02;;;;;;;8.90;69.40;98762.34;6166698;23;20071;-94
2023/11/15 00:47:03;;;;;;;18.17;9.52;;;;;;;8.90;69.40;98764.22;6141521;23;20004;-93
2023/11/15 00:49:29;;;;;;;15.52;8.85;;;;;;;8.83;69.72;98750.28;6143385;23;20059;-93
2023/11/15 00:51:56;;;;;;;19.67;9.02;;;;;;;9.01;69.40;98760.44;6144665;23;20024;-94
2023/11/15 00:54:23;;;;;;;21.65;9.15;;;;;;;9.06;69.46;98763.09;6144473;23;19996;-94
2023/11/15 00:56:48;;;;;;;16.33;8.88;;;;;;;9.04;68.84;98757.19;6143978;23;20039;-92
2023/11/15 00:59:16;;;;;;;17.23;8.73;;;;;;;9.01;69.85;98771.19;6168936;23;20000;-93
2023/11/15 01:01:43;;;;;;;19.27;9.32;;;;;;;8.92;69.79;98754.00;6144658;23;20062;-93
2023/11/15 01:04:12;;;;;;;14.27;8.93;;;;;;;8.88;69.77;98761.00;6143126;23;20020;-93
2023/11/15 01:06:37;;;;;;;15.02;8.70;;;;;;;8.84;69.83;98758.06;6144819;23;20347;-92
2023/11/15 01:09:07;;;;;;;16.85;8.75;;;;;;;8.78;69.69;98740.38;6143815;23;20008;-93
2023/11/15 01:11:33;;;;;;;15.07;8.57;;;;;;;8.68;69.67;98726.97;6145332;23;20000;-94
2023/11/15 01:13:59;;;;;;;14.30;8.20;;;;;;;8.80;69.62;98732.03;6143731;23;20058;-93
2023/11/15 01:16:24;;;;;;;16.77;9.05;;;;;;;8.67;69.76;98725.34;6142177;23;20075;-93
2023/11/15 01:18:50;;;;;;;21.35;9.15;;;;;;;8.65;70.00;98731.00;6144539;23;20093;-94
2023/11/15 01:21:18;;;;;;;15.68;8.68;;;;;;;8.49;70.40;98708.75;6144687;23;20095;-93
2023/11/15 01:23:44;;;;;;;15.95;8.43;;;;;;;8.46;70.38;98721.91;6170360;23;20371;-92
2023/11/15 01:26:09;;;;;;;15.07;8.13;;;;;;;8.59;70.36;98744.69;6145014;23;20011;-92
2023/11/15 01:28:35;;;;;;;12.35;8.32;;;;;;;8.61;69.76;98726.44;6143554;23;20436;-92
2023/11/15 01:31:01;;;;;;;18.13;8.00;;;;;;;8.77;69.48;98746.00;6143911;23;20004;-93
2023/11/15 01:33:26;;;;;;;14.00;8.43;;;;;;;8.64;70.15;98725.91;6144690;23;20028;-93
2023/11/15 01:35:54;;;;;;;15.40;8.10;;;;;;;8.50;71.57;98718.41;6142608;23;20004;-92
2023/11/15 01:38:20;;;;;;;15.20;8.00;;;;;;;8.43;71.11;98711.72;6144147;23;20000;-92
2023/11/15 01:40:47;;;;;;;15.15;8.57;;;;;;;8.61;71.07;98740.66;6143988;23;20084;-93
2023/11/15 01:43:16;;;;;;;15.68;7.80;;;;;;;8.44;71.03;98734.78;6168666;23;20000;-92
2023/11/15 01:45:46;;;;;;;12.43;8.05;;;;;;;8.44;70.88;98740.13;6143852;23;19996;-92
2023/11/15 01:48:13;;;;;;;13.73;7.88;;;;;;;8.30;71.44;98711.16;6145809;23;19997;-92
2023/11/15 01:50:39;;;;;;;11.63;7.20;;;;;;;8.37;70.86;98721.63;6144222;23;20040;-93
2023/11/15 01:53:05;;;;;;;13.65;7.63;;;;;;;8.24;71.71;98714.13;6144619;23;20000;-93
2023/11/15 01:55:30;;;;;;;11.77;6.70;;;;;;;8.18;71.38;98709.84;6143352;23;20494;-93
2023/11/15 01:57:58;;;;;;;12.30;6.88;;;;;;;8.13;71.32;98707.13;6142815;23;20001;-93
2023/11/15 02:00:24;;;;;;;13.23;6.72;;;;;;;8.11;72.06;98707.41;6168360;23;20004;-92
2023/11/15 02:02:50;;;;;;;12.95;7.35;;;;;;;8.06;71.31;98694.81;6144840;23;20442;-93
2023/11/15 02:05:15;;;;;;;11.10;6.35;;;;;;;8.12;72.15;98710.91;6142700;23;20012;-93
2023/11/15 02:07:42;;;;;;;11.15;6.80;;;;;;;8.18;72.10;98726.72;6167335;23;20001;-93
2023/11/15 02:10:08;;;;;;;11.65;6.15;;;;;;;8.06;71.95;98708.22;6143174;23;20004;-93
2023/11/15 02:12:34;;;;;;;14.52;6.53;;;;;;;8.01;71.94;98707.41;6167959;23;20059;-92
2023/11/15 02:14:59;;;;;;;10.00;6.05;;;;;;;8.01;71.82;98716.28;6144090;23;20339;-92
2023/11/15 02:17:26;;;;;;;14.05;7.35;;;;;;;7.90;72.06;98694.00;6142915;23;20020;-93
2023/11/15 02:19:51;;;;;;;16.42;7.35;;;;;;;7.84;71.55;98689.72;6168170;23;20001;-93
2023/11/15 02:22:20;;;;;;;13.80;6.85;;;;;;;7.82;72.08;98691.03;6143858;23;20068;-93
2023/11/15 02:24:46;;;;;;;11.25;6.90;;;;;;;7.85;72.21;98717.31;6168765;23;20095;-93
2023/11/15 02:27:11;;;;;;;12.73;6.70;;;;;;;7.73;72.59;98690.78;6142892;23;20035;-94
2023/11/15 02:29:38;;;;;;;10.93;6.65;;;;;;;7.82;72.63;98689.19;6142488;23;20022;-93
2023/11/15 02:32:04;;;;;;;13.20;6.97;;;;;;;7.94;72.87;98707.66;6144244;23;19997;-93
2023/11/15 02:34:30;;;;;;;12.43;6.95;;;;;;;7.82;72.30;98691.03;6167581;23;20084;-93
2023/11/15 02:36:58;;;;;;;12.55;7.57;;;;;;;7.91;72.35;98716.25;6144554;23;20003;-94
2023/11/15 02:39:23;;;;;;;12.95;7.38;;;;;;;7.76;72.73;98702.81;6143989;23;20031;-94
2023/11/15 02:41:50;;;;;;;11.00;6.75;;;;;;;7.68;72.71;98694.25;6143823;23;20004;-93
2023/11/15 02:44:15;;;;;;;13.70;7.60;;;;;;;7.87;72.42;98732.06;6143227;23;20011;-93
2023/11/15 02:46:41;;;;;;;11.93;7.20;;;;;;;7.65;72.66;98702.03;6142897;23;19997;-94
2023/11/15 02:49:07;;;;;;;12.15;7.00;;;;;;;7.69;73.20;98695.84;6143166;23;20030;-93
2023/11/15 02:51:32;;;;;;;11.38;6.72;;;;;;;7.61;72.94;98680.31;6142798;23;20011;-94
2023/11/15 02:53:58;;;;;;;13.95;7.13;;;;;;;7.73;72.75;98696.13;6143171;23;20435;-93
2023/11/15 02:56:24;;;;;;;12.73;7.30;;;;;;;7.65;72.72;98676.03;6143359;23;20007;-93
2023/11/15 02:58:50;;;;;;;14.27;7.05;;;;;;;7.61;73.15;98685.66;6144265;23;20452;-93
2023/11/15 03:01:16;;;;;;;14.02;6.75;;;;;;;7.57;72.57;98681.09;6143774;23;20008;-93
2023/11/15 03:03:41;;;;;;;15.43;6.95;;;;;;;7.67;72.53;98679.25;6143410;23;20016;-94
2023/11/15 03:06:07;;;;;;;18.15;7.85;;;;;;;7.67;72.73;98678.44;6168637;23;19997;-93
2023/11/15 03:08:33;;;;;;;12.45;7.40;;;;;;;7.59;72.92;98668.25;6143579;23;20054;-93
2023/11/15 03:10:59;;;;;;;19.10;7.25;;;;;;;7.67;73.08;98689.16;6191562;23;20008;-92
2023/11/15 03:13:24;;;;;;;16.35;7.88;;;;;;;7.69;73.24;98689.69;6144132;23;20001;-94
2023/11/15 03:15:50;;;;;;;20.08;8.18;;;;;;;7.56;72.72;98666.13;6145194;23;20412;-94
2023/11/15 03:18:19;;;;;;;17.00;8.00;;;;;;;7.54;72.74;98666.38;6145026;23;20049;-93
2023/11/15 03:20:44;;;;;;;13.63;7.68;;;;;;;7.55;72.44;98675.22;6145664;23;20001;-92
2023/11/15 03:23:10;;;;;;;16.27;7.53;;;;;;;7.61;72.88;98680.31;6144344;23;20450;-93
2023/11/15 03:25:39;;;;;;;13.32;7.55;;;;;;;7.57;73.04;98665.81;6143265;23;19997;-93
2023/11/15 03:28:05;;;;;;;13.77;7.60;;;;;;;7.68;72.73;98688.91;6142515;23;19997;-94
2023/11/15 03:30:31;;;;;;;14.52;7.45;;;;;;;7.54;72.75;98673.63;6142779;23;20066;-93
2023/11/15 03:32:57;;;;;;;12.05;7.25;;;;;;;7.50;73.50;98684.03;6143108;23;20382;-94
2023/11/15 03:35:23;;;;;;;14.00;7.97;;;;;;;7.36;73.32;98667.66;6141761;23;20019;-93
2023/11/15 03:37:49;;;;;;;20.27;8.50;;;;;;;7.45;73.06;98655.38;6166748;23;20004;-91
2023/11/15 03:40:15;;;;;;;11.95;7.80;;;;;;;7.38;73.48;98654.03;6167876;23;20351;-92
2023/11/15 03:42:41;;;;;;;15.93;8.13;;;;;;;7.28;73.09;98636.06;6167146;23;20008;-92
2023/11/15 03:45:19;;;;;;;13.23;8.20;;;;;;;7.43;73.33;98665.56;6168003;23;20420;-93
2023/11/15 03:47:52;;;;;;;14.35;7.68;;;;;;;7.37;73.30;98650.56;6143760;23;20514;-93
2023/11/15 03:50:18;;;;;;;13.77;7.82;;;;;;;7.23;73.66;98642.22;6169614;23;20001;-94
2023/11/15 03:52:44;;;;;;;15.60;8.38;;;;;;;7.38;73.20;98654.03;6143601;23;20405;-95
2023/11/15 03:55:11;;;;;;;15.57;8.10;;;;;;;7.32;73.63;98657.75;6167460;23;20004;-94
2023/11/15 03:57:37;;;;;;;14.25;8.52;;;;;;;7.32;73.25;98647.03;6144523;23;20019;-95
2023/11/15 04:00:07;;;;;;;12.77;8.60;;;;;;;7.46;72.89;98670.38;6142496;23;20001;-94
2023/11/15 04:02:33;;;;;;;13.80;8.57;;;;;;;7.34;73.46;98645.72;6169226;23;20005;-94
2023/11/15 04:04:58;;;;;;;20.58;8.95;;;;;;;7.31;72.90;98640.09;6162716;23;20025;-95
2023/11/15 04:07:26;;;;;;;15.52;8.52;;;;;;;7.32;72.97;98642.50;6188218;23;20008;-94
2023/11/15 04:09:52;;;;;;;17.52;8.73;;;;;;;7.32;73.29;98642.50;6187964;23;20028;-96
2023/11/15 04:12:18;;;;;;;15.50;9.27;;;;;;;7.41;73.04;98656.97;6161938;23;20001;-95
2023/11/15 04:14:43;;;;;;;15.45;8.70;;;;;;;7.23;73.12;98625.34;6187243;23;20063;-96
2023/11/15 04:17:10;;;;;;;17.95;8.95;;;;;;;7.18;73.49;98617.28;6164004;23;20001;-95
2023/11/15 04:19:36;;;;;;;18.00;9.20;;;;;;;7.29;73.15;98640.34;6188291;23;20455;-96
2023/11/15 04:22:01;;;;;;;20.98;9.23;;;;;;;7.25;72.72;98625.88;6162672;23;20001;-96
2023/11/15 04:24:30;;;;;;;23.58;10.95;;;;;;;7.28;73.12;98636.88;6190912;23;20004;-96
2023/11/15 04:26:57;;;;;;;19.40;9.95;;;;;;;7.22;72.26;98624.56;6142468;23;20005;-95
2023/11/15 04:29:25;;;;;;;17.35;9.93;;;;;;;7.35;72.41;98623.22;6166396;23;20025;-96
2023/11/15 04:31:51;;;;;;;17.50;9.73;;;;;;;7.69;71.96;98660.22;6168246;23;20004;-96
2023/11/15 04:34:17;;;;;;;17.23;8.38;;;;;;;7.51;71.70;98620.56;6194657;23;20052;-96
2023/11/15 04:36:43;;;;;;;19.20;9.65;;;;;;;7.54;72.18;98602.09;6194369;23;20411;-96
2023/11/15 04:39:08;;;;;;;24.05;10.40;;;;;;;7.53;72.38;98588.94;6169951;23;20012;-92
2023/11/15 04:41:34;;;;;;;20.10;10.30;;;;;;;7.47;72.48;98590.81;6163980;23;20001;-93
2023/11/15 04:44:00;;;;;;;20.17;11.02;;;;;;;7.39;72.26;98581.47;6139499;23;20013;-93
2023/11/15 04:46:26;;;;;;;19.92;11.70;;;;;;;7.35;72.56;98569.66;6163768;23;20004;-92
2023/11/15 04:48:52;;;;;;;19.60;10.90;;;;;;;7.38;72.37;98579.03;6139644;23;20336;-93
2023/11/15 04:51:18;;;;;;;20.45;10.85;;;;;;;7.38;72.63;98571.81;6138181;23;20127;-93
2023/11/15 04:53:47;;;;;;;19.30;11.07;;;;;;;7.33;72.79;98568.34;6164817;23;20036;-95
2023/11/15 04:56:13;;;;;;;15.55;9.77;;;;;;;7.57;72.40;98598.84;6140652;23;20034;-92
2023/11/15 04:58:43;;;;;;;15.68;9.63;;;;;;;7.45;72.94;98583.06;6163184;23;20080;-94
2023/11/15 05:01:09;;;;;;;17.20;9.70;;;;;;;7.42;72.79;98574.75;6140480;23;20001;-93
2023/11/15 05:03:35;;;;;;;14.80;9.32;;;;;;;7.35;72.67;98572.34;6142257;23;20036;-91
2023/11/15 05:06:01;;;;;;;18.23;9.38;;;;;;;7.43;72.52;98571.81;6193144;23;19992;-94
2023/11/15 05:08:26;;;;;;;16.77;9.60;;;;;;;7.43;72.93;98577.19;6143403;23;20035;-93
2023/11/15 05:10:52;;;;;;;21.20;9.73;;;;;;;7.36;72.65;98563.22;6142990;23;20000;-94
2023/11/15 05:13:19;;;;;;;20.98;12.25;;;;;;;7.14;73.08;98560.00;6143857;23;19992;-94
2023/11/15 05:15:48;;;;;;;20.98;9.75;;;;;;;7.05;72.95;98543.66;6147666;23;20396;-96
2023/11/15 05:18:15;;;;;;;23.90;12.32;;;;;;;7.09;73.03;98542.06;6149431;23;19996;-91
2023/11/15 05:20:41;;;;;;;22.83;12.05;;;;;;;7.27;72.97;98568.31;6171403;23;19996;-94
2023/11/15 05:23:08;;;;;;;21.08;12.27;;;;;;;7.18;72.70;98542.31;6146179;23;20454;-95
2023/11/15 05:25:34;;;;;;;22.05;12.40;;;;;;;7.29;73.05;98573.41;6144674;23;19996;-92
2023/11/15 05:28:05;;;;;;;25.42;14.77;;;;;;;7.19;72.50;98550.09;6169699;23;20050;-95
2023/11/15 05:30:30;;;;;;;38.30;20.98;;;;;;;7.05;72.90;98540.97;6145100;23;20004;-93
2023/11/15 05:32:57;;;;;;;42.05;21.52;;;;;;;7.14;72.86;98546.59;6144813;23;20347;-94
2023/11/15 05:35:26;;;;;;;46.42;22.75;;;;;;;7.19;72.42;98560.81;6145312;23;20018;-92
2023/11/15 05:37:52;;;;;;;39.60;20.33;;;;;;;7.16;72.77;98526.56;6146449;23;20091;-93
2023/11/15 05:40:18;;;;;;;50.13;23.48;;;;;;;7.27;72.49;98543.41;6169155;23;20007;-93
2023/11/15 05:42:44;;;;;;;44.33;23.55;;;;;;;7.37;72.99;98548.78;6143630;23;20001;-91
2023/11/15 05:45:15;;;;;;;36.58;19.17;;;;;;;7.41;71.88;98523.06;6145371;23;20020;-92
2023/11/15 05:47:44;;;;;;;36.10;18.90;;;;;;;7.60;71.77;98536.72;6172487;23;20004;-91
2023/11/15 05:50:10;;;;;;;40.45;18.65;;;;;;;7.73;70.98;98524.63;6145824;23;20005;-92
2023/11/15 05:52:44;;;;;;;37.05;19.10;;;;;;;7.93;71.53;98544.44;6144695;23;20491;-95
2023/11/15 05:55:12;;;;;;;34.28;19.13;;;;;;;7.95;70.93;98534.22;6146190;23;20015;-92
2023/11/15 05:57:40;;;;;;;41.00;19.95;;;;;;;8.08;71.04;98539.03;6145281;23;20001;-92
2023/11/15 06:00:18;;;;;;;32.83;19.70;;;;;;;8.05;70.88;98523.50;6168088;23;20063;-93
2023/11/15 06:02:54;;;;;;;30.90;18.27;;;;;;;8.27;70.27;98521.28;6173003;23;20452;-93
2023/11/15 06:05:23;;;;;;;32.55;16.90;;;;;;;8.23;70.38;98500.66;6141668;23;20017;-94
2023/11/15 06:07:48;;;;;;;38.35;17.95;;;;;;;8.29;69.58;98513.75;6111937;23;20009;-94
2023/11/15 06:10:14;;;;;;;34.10;16.40;;;;;;;8.41;69.35;98521.53;6135600;23;20044;-94
2023/11/15 06:12:40;;;;;;;29.42;15.45;;;;;;;8.45;69.35;98522.56;6110992;23;20008;-92
2023/11/15 06:15:25;;;;;;;36.30;17.45;;;;;;;8.75;69.25;98536.13;6109461;23;20017;-93
2023/11/15 06:17:54;;;;;;;34.28;17.42;;;;;;;8.77;68.88;98502.53;6136207;23;20001;-94
2023/11/15 06:20:39;;;;;;;35.47;15.57;;;;;;;8.87;68.78;98515.91;6079999;23;20002;-91
2023/11/15 06:23:07;;;;;;;37.53;17.60;;;;;;;8.90;68.33;98506.47;6073812;23;20030;-91
2023/11/15 06:25:34;;;;;;;31.60;15.82;;;;;;;8.96;68.63;98518.00;6097647;23;20095;-90
2023/11/15 06:28:00;;;;;;;32.53;16.75;;;;;;;9.17;68.01;98532.09;6024889;23;20017;-92
2023/11/15 06:30:25;;;;;;;31.95;16.48;;;;;;;9.22;67.60;98535.53;6096140;23;20426;-92
2023/11/15 06:32:51;;;;;;;34.70;16.30;;;;;;;9.26;67.38;98512.41;6023894;23;20476;-92
2023/11/15 06:35:31;;;;;;;52.38;20.70;;;;;;;9.61;66.35;98533.91;6051707;23;20007;-91
2023/11/15 06:38:02;;;;;;;44.10;24.02;;;;;;;9.46;67.21;98506.06;6065666;23;20455;-94
2023/11/15 06:40:30;;;;;;;25.17;15.35;;;;;;;9.70;66.11;98516.06;6110720;23;20020;-92
2023/11/15 06:42:59;;;;;;;40.60;19.48;;;;;;;9.75;66.14;98517.91;6088383;23;20514;-91
2023/11/15 06:45:25;;;;;;;37.55;17.40;;;;;;;9.93;65.16;98500.25;6085730;23;19993;-89
2023/11/15 06:47:51;;;;;;;34.95;17.30;;;;;;;10.18;64.62;98512.59;6083256;23;20411;-91
2023/11/15 06:50:18;;;;;;;58.22;24.60;;;;;;;10.32;64.20;98503.56;6083265;23;20064;-94
2023/11/15 06:52:45;;;;;;;43.45;21.77;;;;;;;10.58;64.11;98513.22;6138870;23;20000;-92
2023/11/15 06:55:21;;;;;;;61.88;22.98;;;;;;;10.55;64.26;98511.91;6138906;23;20071;-93
2023/11/15 06:57:49;;;;;;;49.72;23.25;;;;;;;10.81;63.85;98500.78;6142298;23;20000;-92
2023/11/15 07:03:25;;;;;;;43.30;19.42;;;;;;;11.03;62.68;98489.41;6163874;23;20008;-92
2023/11/15 07:06:23;;;;;;;37.50;20.13;;;;;;;10.95;62.78;98477.41;6164352;23;20009;-93
2023/11/15 07:08:59;;;;;;;36.10;17.98;;;;;;;11.14;63.03;98501.63;6148223;23;20001;-95
2023/11/15 07:11:47;;;;;;;48.13;22.05;;;;;;;11.43;62.88;98501.41;6119310;23;20036;-95
2023/11/15 07:17:34;;;;;;;42.75;20.48;;;;;;;11.57;62.27;98476.41;6192329;22;20033;-92
2023/11/15 07:20:31;;;;;;;33.17;18.95;;;;;;;11.51;62.02;98460.31;6116633;23;20330;-94
2023/11/15 07:22:57;;;;;;;39.60;19.02;;;;;;;11.78;61.60;98455.25;6127776;23;20036;-93
2023/11/15 07:25:29;;;;;;;40.03;19.08;;;;;;;12.05;61.35;98476.88;6141141;23;20021;-94
2023/11/15 07:28:12;;;;;;;44.35;24.17;;;;;;;12.38;60.86;98486.75;6116544;23;20012;-95
2023/11/15 07:30:43;;;;;;;42.53;25.10;;;;;;;12.44;60.42;98493.66;6117224;23;20492;-94
2023/11/15 07:33:09;;;;;;;53.08;21.38;;;;;;;12.44;60.11;98478.25;6116408;23;20075;-91
2023/11/15 07:36:01;;;;;;;37.42;20.00;;;;;;;12.76;59.94;98492.66;6115472;23;20008;-94
2023/11/15 07:38:35;;;;;;;40.25;19.88;;;;;;;12.74;59.31;98467.84;6102261;23;20005;-91
2023/11/15 07:41:06;;;;;;;35.63;18.95;;;;;;;12.77;58.46;98459.16;6144038;23;20016;-94
2023/11/15 07:43:35;;;;;;;47.95;19.92;;;;;;;12.84;58.83;98497.34;6140170;23;20063;-91
2023/11/15 07:46:09;;;;;;;42.22;21.35;;;;;;;12.80;59.07;98484.75;6114174;23;20001;-94
2023/11/15 07:48:36;;;;;;;44.00;21.80;;;;;;;12.78;58.75;98470.75;6115131;23;20456;-92
2023/11/15 07:53:58;;;;;;;45.05;25.05;;;;;;;12.69;59.67;98484.97;6161059;23;20032;-94
2023/11/15 07:56:27;;;;;;;46.22;23.70;;;;;;;12.64;58.92;98468.91;6138441;23;20515;-94
2023/11/15 07:58:55;;;;;;;53.13;27.33;;;;;;;12.87;58.68;98507.56;6117361;23;20004;-92
2023/11/15 08:02:25;;;;;;;54.00;23.70;;;;;;;12.81;58.43;98472.88;6115795;23;20040;-93
2023/11/15 08:08:30;;;;;;;56.50;26.33;;;;;;;13.08;58.67;98516.00;6085711;23;20002;-93
2023/11/15 08:11:04;;;;;;;52.08;27.02;;;;;;;13.03;58.46;98483.69;6080400;23;20006;-94
2023/11/15 08:16:47;;;;;;;55.72;24.40;;;;;;;13.21;58.25;98494.63;6085035;23;20030;-94
2023/11/15 08:19:18;;;;;;;52.47;24.95;;;;;;;13.29;58.00;98491.22;6028212;23;20019;-95
2023/11/15 08:21:49;;;;;;;60.40;25.23;;;;;;;13.44;57.83;98507.03;6047825;23;20006;-96
2023/11/15 08:24:20;;;;;;;46.83;23.05;;;;;;;13.57;57.45;98513.47;6077034;23;20003;-96
2023/11/15 08:26:47;;;;;;;45.57;24.30;;;;;;;13.66;57.38;98519.75;6074912;23;20007;-93
2023/11/15 08:29:22;;;;;;;46.38;23.58;;;;;;;13.65;57.74;98507.31;6047087;23;20010;-94
2023/11/15 08:32:08;;;;;;;;;;;;;;;;;;;;;
2023/11/15 08:38:25;;;;;;;51.85;23.52;;;;;;;13.92;56.78;98527.19;6074238;23;20134;-94
2023/11/15 08:44:47;;;;;;;45.38;24.73;;;;;;;13.96;56.48;98536.28;6075158;23;20014;-95
2023/11/15 08:51:08;;;;;;;51.88;24.63;;;;;;;14.17;57.00;98565.53;6116942;23;20017;-95
2023/11/15 09:03:21;;;;;;;64.22;27.67;;;;;;;14.20;57.10;98611.75;6025553;23;20030;-94
2023/11/15 09:06:14;;;;;;;8.90;3.15;;;;;;;14.32;57.21;98584.09;6024193;23;20003;-94
2023/11/15 09:08:56;;;;;;;6.03;2.20;;;;;;;14.79;55.96;98580.91;6028846;23;20003;-95
2023/11/15 09:29:03;;;;;;;4.93;2.20;;;;;;;16.33;52.99;98650.13;5877007;24;20021;-95
2023/11/15 09:31:37;;;;;;;5.20;2.22;;;;;;;16.22;53.38;98633.38;5883855;24;20493;-95
2023/11/15 09:34:33;;;;;;;4.47;2.00;;;;;;;16.12;53.74;98628.31;5954143;23;20096;-96
2023/11/15 09:36:59;;;;;;;2.97;1.52;;;;;;;16.28;54.54;98661.19;5970827;23;20038;-90
2023/11/15 09:39:29;;;;;;;5.07;2.03;;;;;;;16.16;55.38;98654.53;5970772;24;20080;-91
2023/11/15 09:42:28;;;;;;;;;;;;;;;;;;;;;
2023/11/15 09:45:01;;;;;;;3.77;1.83;;;;;;;16.12;56.30;98650.84;5991018;24;20024;-93
2023/11/15 09:47:45;;;;;;;;;;;;;;;;;;;;;
2023/11/15 09:51:04;;;;;;;5.25;1.92;;;;;;;16.30;57.04;98675.25;6118431;23;20021;-95
2023/11/15 09:54:24;;;;;;;;;;;;;;;;;;;;;
2023/11/15 09:56:49;;;;;;;4.07;1.73;;;;;;;16.26;56.95;98658.00;6103873;23;20413;-93
2023/11/15 09:59:35;;;;;;;;;;;;;;;;;;;;;
2023/11/15 10:02:31;;;;;;;3.30;1.60;;;;;;;16.20;57.00;98653.84;6086254;23;20044;-94
2023/11/15 10:05:29;;;;;;;2.38;1.40;;;;;;;16.16;57.44;98665.38;6077795;23;20002;-91
2023/11/15 10:08:33;;;;;;;2.28;1.27;;;;;;;16.26;57.32;98666.16;6077748;23;20006;-93
2023/11/15 10:11:10;;;;;;;3.67;1.50;;;;;;;16.33;56.96;98659.09;6027910;23;20094;-93
2023/11/15 10:20:50;;;;;;;7.00;1.02;;;;;;;16.43;56.88;98657.94;6014816;23;20118;-93
2023/11/15 10:23:32;;;;;;;21.35;3.10;;;;;;;16.51;57.04;98678.06;5992725;23;20026;-96
2023/11/15 10:26:01;;;;;;;5.03;1.33;;;;;;;16.39;57.24;98678.72;5992175;23;20068;-94
2023/11/15 10:28:43;;;;;;;2.88;1.50;;;;;;;16.34;57.14;98690.56;5991020;23;20503;-95
2023/11/15 10:31:18;;;;;;;506.63;319.52;;;;;;;16.30;58.16;98691.53;5968527;23;20008;-93
2023/11/15 10:34:19;;;;;;;11.77;5.13;;;;;;;16.20;57.92;98697.31;5995304;23;20030;-93
2023/11/15 10:37:10;;;;;;;3.72;1.75;;;;;;;16.10;58.05;98696.53;6052200;23;20006;-95
2023/11/15 10:39:50;;;;;;;4.80;2.33;;;;;;;16.02;58.75;98702.78;6050811;23;20560;-94
2023/11/15 10:42:34;;;;;;;3.42;1.20;;;;;;;15.91;58.80;98698.78;6047201;23;20003;-93
2023/11/15 10:48:05;;;;;;;4.05;1.48;;;;;;;15.97;58.68;98702.94;6057599;23;20432;-93
2023/11/15 10:50:47;;;;;;;;;;;;;;;;;;;;;
2023/11/15 10:53:17;;;;;;;2.75;1.23;;;;;;;15.75;60.00;98712.06;6116346;23;20025;-95
2023/11/15 10:55:53;;;;;;;6.03;1.58;;;;;;;15.77;60.17;98717.94;6110880;23;20041;-96
2023/11/15 10:58:27;;;;;;;1.67;1.10;;;;;;;15.75;60.27;98717.47;6085969;23;20021;-95
2023/11/15 11:00:56;;;;;;;2.28;1.20;;;;;;;15.75;60.23;98715.56;6091210;23;20009;-92
2023/11/15 11:03:51;;;;;;;3.20;1.38;;;;;;;15.86;60.34;98739.69;6088571;23;20005;-94
2023/11/15 11:06:41;;;;;;;2.00;1.00;;;;;;;16.09;59.42;98762.03;6110855;23;20002;-93
2023/11/15 11:13:10;;;;;;;2.42;1.27;;;;;;;16.02;59.50;98748.13;6165889;23;20009;-93
2023/11/15 11:15:41;;;;;;;8.93;3.88;;;;;;;16.22;59.21;98746.69;6093763;23;20412;-95
2023/11/15 11:18:19;;;;;;;10.20;6.05;;;;;;;16.18;58.96;98749.25;6092212;23;20332;-92
2023/11/15 11:21:02;;;;;;;2.45;1.20;;;;;;;16.11;58.97;98763.31;6115091;23;20009;-95
2023/11/15 11:23:30;;;;;;;7.35;2.08;;;;;;;16.33;58.96;98772.38;6111021;23;20013;-95
2023/11/15 11:27:07;;;;;;;;;;;;;;;;;;;;;
2023/11/15 11:30:13;;;;;;;1.70;0.90;;;;;;;16.34;57.00;98760.41;6066982;23;20006;-95
2023/11/15 11:32:40;;;;;;;4.10;1.30;;;;;;;16.34;57.54;98763.13;6054952;23;20027;-95
2023/11/15 11:35:13;;;;;;;5.07;2.00;;;;;;;16.63;57.62;98797.00;6074501;23;20076;-94
2023/11/15 11:37:59;;;;;;;5.00;1.65;;;;;;;16.76;56.53;98787.84;6138194;23;20012;-94
2023/11/15 11:40:38;;;;;;;3.63;1.00;;;;;;;16.52;56.19;98767.44;6125435;23;20381;-95
2023/11/15 11:43:22;;;;;;;1.73;0.93;;;;;;;16.63;55.91;98778.75;6106514;23;20039;-96
2023/11/15 11:49:48;;;;;;;2.42;1.15;;;;;;;16.85;54.96;98796.00;6174799;23;20088;-96
2023/11/15 11:52:36;;;;;;;5.78;2.13;;;;;;;16.86;55.13;98784.78;6096942;23;20072;-94
2023/11/15 11:55:14;;;;;;;5.90;1.40;;;;;;;16.98;54.84;98788.78;6105358;23;19993;-95
2023/11/15 11:57:44;;;;;;;2.35;0.90;;;;;;;17.05;54.42;98789.84;6103526;23;20006;-96
2023/11/15 12:14:06;;;;;;;1.80;1.10;;;;;;;17.03;54.76;98777.72;6223675;22;20048;-95
2023/11/15 12:16:47;;;;;;;3.63;1.80;;;;;;;16.97;54.85;98760.75;6174083;23;20015;-95
2023/11/15 12:19:29;;;;;;;;;;;;;;;;;;;;;
2023/11/15 12:21:54;;;;;;;;;;;;;;;17.11;54.13;98799.44;6176920;23;20361;-94
2023/11/15 12:25:18;;;;;;;;;;;;;;;;;;;;;
2023/11/15 12:27:56;;;;;;;3.00;1.20;;;;;;;16.86;55.17;98767.69;6160242;23;20005;-96
2023/11/15 12:30:50;;;;;;;4.55;2.13;;;;;;;16.70;55.84;98770.88;6072941;23;20003;-94
2023/11/15 12:33:16;;;;;;;6.25;1.17;;;;;;;16.70;55.45;98767.38;6111093;23;19992;-94
2023/11/15 12:36:41;;;;;;;5.05;2.88;;;;;;;16.52;55.34;98762.00;6122239;23;20009;-95
2023/11/15 12:40:05;;;;;;;;;;;;;;;;;;;;;
2023/11/15 12:42:47;;;;;;;2.95;0.80;;;;;;;16.56;53.98;98754.78;6026725;23;20105;-96
2023/11/15 12:47:04;;;;;;;;;;;;;;;;;;;;;
2023/11/15 12:49:11;;;;;;;;;;;;;;;;;;;;;
2023/11/15 12:51:52;;;;;;;8.90;1.20;;;;;;;16.33;53.58;98718.06;6138744;23;20029;-96
2023/11/15 12:54:21;;;;;;;1.48;0.80;;;;;;;16.51;53.49;98726.97;6135450;23;20352;-94
2023/11/15 12:57:22;;;;;;;2.55;1.35;;;;;;;16.65;53.76;98746.59;6165306;23;20009;-95
2023/11/15 13:03:38;;;;;;;5.07;2.53;;;;;;;16.66;53.15;98744.69;6130338;23;20451;-94
2023/11/15 13:06:10;;;;;;;6.82;2.80;;;;;;;16.87;53.08;98772.00;6082125;23;20002;-93
2023/11/15 13:09:09;;;;;;;;;;;;;;;;;;;;;
2023/11/15 13:36:33;;;;;;;;;;;;;;;;;;;;;
2023/11/15 13:39:18;;;;;;;;;;;;;;;;;;;;;
2023/11/15 13:42:02;;;;;;;1.75;1.30;;;;;;;17.02;51.56;98787.00;6153475;23;20031;-93
2023/11/15 13:47:28;;;;;;;2.95;1.50;;;;;;;16.91;52.23;98784.63;6173581;23;20031;-93
2023/11/15 13:50:33;;;;;;;5.75;2.97;;;;;;;17.03;51.82;98786.66;6170710;23;20009;-91
2023/11/15 13:53:03;;;;;;;3.85;1.73;;;;;;;16.83;51.74;98763.72;6135087;23;20025;-94
2023/11/15 13:55:58;;;;;;;7.57;3.80;;;;;;;16.78;52.03;98752.97;6169861;23;20009;-93
2023/11/15 13:58:29;;;;;;;3.60;1.80;;;;;;;16.85;52.64;98768.78;6179319;23;20001;-94
2023/11/15 14:01:01;;;;;;;1.92;1.10;;;;;;;16.62;51.32;98754.59;6179230;23;20000;-94
2023/11/15 14:03:38;;;;;;;2.53;1.40;;;;;;;16.62;51.99;98788.03;6148305;23;20011;-93
2023/11/15 14:06:58;;;;;;;;;;;;;;;;;;;;;
2023/11/15 14:16:01;;;;;;;2.30;1.38;;;;;;;16.53;51.46;98760.06;6015149;23;20011;-95
2023/11/15 14:18:40;;;;;;;;;;;;;;;;;;;;;
2023/11/15 14:21:30;;;;;;;6.72;2.30;;;;;;;16.45;51.98;98777.97;6028513;23;20550;-93
2023/11/15 14:24:38;;;;;;;;;;;;;;;;;;;;;